West Yellowstone, Montana
Current Conditions -  °F | °C
As of 10:50 AM on Thursday 30 Oct 2014 (Local Time) from KWYS Reporting Station
Broken Clouds Broken Clouds  
Wind Chill: 32°   Ceiling: 11000
Heat Index: 32°   Visibility: 10mi
Dew Point: 28°   Wind: 0mph
Humidity: 87%   Direction: NA
Pressure: 30.37"   Gusts: NA
Location:  44.66°N, 111.1°W
Report Text: KWYS 301650Z AUTO 00000KT 10SM SCT075 BKN110 00/M02 A3037 RMK AO2
Loading
Personal Weather Stations






























Interactive Weather Map
Tropical Storm Tracking
New forecast layout! Learn more

10-Day Weather Forecast

Advertisements
Track Severe Weather on mobile